sensor_id;sensor_type;location;lat;lon;timestamp;P1;durP1;ratioP1;P2;durP2;ratioP2
10275;SDS011;5183;51.190;6.820;2022-12-11T06:32:01;56.17;;;28.73;;
10275;SDS011;5183;51.190;6.820;2022-12-11T06:34:28;53.57;;;26.93;;
10275;SDS011;5183;51.190;6.820;2022-12-11T06:36:55;54.70;;;29.47;;
10275;SDS011;5183;51.190;6.820;2022-12-11T06:39:21;56.80;;;30.20;;
10275;SDS011;5183;51.190;6.820;2022-12-11T06:41:48;57.97;;;30.30;;
10275;SDS011;5183;51.190;6.820;2022-12-11T06:44:15;61.83;;;28.93;;
10275;SDS011;5183;51.190;6.820;2022-12-11T06:46:42;64.53;;;29.77;;
10275;SDS011;5183;51.190;6.820;2022-12-11T06:49:10;62.00;;;31.97;;
10275;SDS011;5183;51.190;6.820;2022-12-11T06:51:37;62.33;;;31.43;;
10275;SDS011;5183;51.190;6.820;2022-12-11T06:54:04;62.53;;;29.80;;
10275;SDS011;5183;51.190;6.820;2022-12-11T06:56:33;62.70;;;32.60;;
10275;SDS011;5183;51.190;6.820;2022-12-11T06:59:00;57.40;;;30.03;;
10275;SDS011;5183;51.190;6.820;2022-12-11T07:01:27;59.87;;;30.47;;
10275;SDS011;5183;51.190;6.820;2022-12-11T07:03:54;61.00;;;31.10;;
10275;SDS011;5183;51.190;6.820;2022-12-11T07:06:25;57.87;;;30.03;;
10275;SDS011;5183;51.190;6.820;2022-12-11T07:08:52;65.13;;;31.00;;
10275;SDS011;5183;51.190;6.820;2022-12-11T07:11:20;57.37;;;28.20;;
10275;SDS011;5183;51.190;6.820;2022-12-11T07:13:47;58.23;;;28.73;;
10275;SDS011;5183;51.190;6.820;2022-12-11T07:16:14;52.20;;;27.53;;
10275;SDS011;5183;51.190;6.820;2022-12-11T07:18:43;57.17;;;30.70;;
10275;SDS011;5183;51.190;6.820;2022-12-11T07:21:13;53.00;;;28.60;;
10275;SDS011;5183;51.190;6.820;2022-12-11T07:23:41;55.23;;;28.93;;
10275;SDS011;5183;51.190;6.820;2022-12-11T07:26:09;50.60;;;26.80;;
10275;SDS011;5183;51.190;6.820;2022-12-11T07:28:37;49.57;;;26.53;;
10275;SDS011;5183;51.190;6.820;2022-12-11T07:31:04;55.93;;;26.97;;
10275;SDS011;5183;51.190;6.820;2022-12-11T07:33:31;51.43;;;27.23;;
10275;SDS011;5183;51.190;6.820;2022-12-11T07:35:59;51.30;;;26.60;;
10275;SDS011;5183;51.190;6.820;2022-12-11T07:38:27;51.83;;;26.33;;
10275;SDS011;5183;51.190;6.820;2022-12-11T07:40:55;49.43;;;25.70;;
10275;SDS011;5183;51.190;6.820;2022-12-11T07:43:25;45.17;;;25.77;;
10275;SDS011;5183;51.190;6.820;2022-12-11T07:45:52;46.13;;;25.47;;
10275;SDS011;5183;51.190;6.820;2022-12-11T07:48:18;46.43;;;23.90;;
10275;SDS011;5183;51.190;6.820;2022-12-11T07:50:45;49.47;;;25.00;;
10275;SDS011;5183;51.190;6.820;2022-12-11T07:53:12;43.80;;;23.83;;
10275;SDS011;5183;51.190;6.820;2022-12-11T07:55:39;48.53;;;25.30;;
10275;SDS011;5183;51.190;6.820;2022-12-11T07:58:07;45.10;;;25.47;;
10275;SDS011;5183;51.190;6.820;2022-12-11T08:00:34;43.07;;;24.53;;
10275;SDS011;5183;51.190;6.820;2022-12-11T08:03:01;45.07;;;25.07;;
10275;SDS011;5183;51.190;6.820;2022-12-11T08:05:27;49.57;;;25.93;;
10275;SDS011;5183;51.190;6.820;2022-12-11T08:07:54;46.83;;;24.27;;
10275;SDS011;5183;51.190;6.820;2022-12-11T08:10:21;49.47;;;25.90;;
10275;SDS011;5183;51.190;6.820;2022-12-11T08:12:48;46.80;;;25.67;;
10275;SDS011;5183;51.190;6.820;2022-12-11T08:15:16;47.00;;;25.67;;
10275;SDS011;5183;51.190;6.820;2022-12-11T08:17:43;48.97;;;25.63;;
10275;SDS011;5183;51.190;6.820;2022-12-11T08:20:10;47.77;;;26.97;;
10275;SDS011;5183;51.190;6.820;2022-12-11T08:22:37;45.20;;;24.73;;
10275;SDS011;5183;51.190;6.820;2022-12-11T08:25:04;48.00;;;25.03;;
10275;SDS011;5183;51.190;6.820;2022-12-11T08:27:31;41.80;;;23.40;;
10275;SDS011;5183;51.190;6.820;2022-12-11T08:30:01;44.27;;;25.37;;
10275;SDS011;5183;51.190;6.820;2022-12-11T08:32:31;47.33;;;25.17;;
10275;SDS011;5183;51.190;6.820;2022-12-11T08:34:58;46.40;;;25.33;;
10275;SDS011;5183;51.190;6.820;2022-12-11T08:37:25;49.47;;;25.90;;
10275;SDS011;5183;51.190;6.820;2022-12-11T08:39:53;41.20;;;24.03;;
10275;SDS011;5183;51.190;6.820;2022-12-11T08:42:20;45.10;;;23.93;;
10275;SDS011;5183;51.190;6.820;2022-12-11T08:44:47;44.67;;;24.33;;
10275;SDS011;5183;51.190;6.820;2022-12-11T08:47:14;45.57;;;25.20;;
10275;SDS011;5183;51.190;6.820;2022-12-11T08:49:42;48.10;;;25.10;;
10275;SDS011;5183;51.190;6.820;2022-12-11T08:52:09;48.83;;;25.20;;
10275;SDS011;5183;51.190;6.820;2022-12-11T08:54:36;43.80;;;24.00;;
10275;SDS011;5183;51.190;6.820;2022-12-11T08:57:03;44.50;;;23.40;;
10275;SDS011;5183;51.190;6.820;2022-12-11T08:59:30;44.53;;;25.25;;
10275;SDS011;5183;51.190;6.820;2022-12-11T09:01:57;42.40;;;24.57;;
10275;SDS011;5183;51.190;6.820;2022-12-11T09:04:23;41.43;;;24.03;;
10275;SDS011;5183;51.190;6.820;2022-12-11T09:06:52;39.30;;;23.43;;
10275;SDS011;5183;51.190;6.820;2022-12-11T09:09:18;41.63;;;24.93;;
10275;SDS011;5183;51.190;6.820;2022-12-11T09:11:45;40.87;;;23.67;;
10275;SDS011;5183;51.190;6.820;2022-12-11T09:14:13;45.17;;;24.83;;
10275;SDS011;5183;51.190;6.820;2022-12-11T09:16:41;46.27;;;24.80;;
10275;SDS011;5183;51.190;6.820;2022-12-11T09:19:10;44.70;;;24.13;;
10275;SDS011;5183;51.190;6.820;2022-12-11T09:21:38;46.27;;;24.03;;
10275;SDS011;5183;51.190;6.820;2022-12-11T09:24:08;42.03;;;23.83;;
10275;SDS011;5183;51.190;6.820;2022-12-11T09:26:36;43.63;;;23.80;;
10275;SDS011;5183;51.190;6.820;2022-12-11T09:29:03;39.80;;;23.00;;
10275;SDS011;5183;51.190;6.820;2022-12-11T09:31:32;37.87;;;22.97;;
10275;SDS011;5183;51.190;6.820;2022-12-11T09:34:01;43.83;;;26.83;;
10275;SDS011;5183;51.190;6.820;2022-12-11T09:36:29;45.23;;;25.50;;
10275;SDS011;5183;51.190;6.820;2022-12-11T09:38:58;37.23;;;23.00;;
10275;SDS011;5183;51.190;6.820;2022-12-11T09:41:31;35.30;;;21.57;;
10275;SDS011;5183;51.190;6.820;2022-12-11T09:44:20;34.33;;;21.43;;
10275;SDS011;5183;51.190;6.820;2022-12-11T09:46:56;34.20;;;20.90;;
10275;SDS011;5183;51.190;6.820;2022-12-11T09:49:25;35.07;;;21.60;;
10275;SDS011;5183;51.190;6.820;2022-12-11T09:51:59;32.80;;;20.83;;
10275;SDS011;5183;51.190;6.820;2022-12-11T09:54:34;33.50;;;20.83;;
10275;SDS011;5183;51.190;6.820;2022-12-11T09:57:04;35.43;;;21.97;;
10275;SDS011;5183;51.190;6.820;2022-12-11T09:59:40;32.80;;;20.83;;
10275;SDS011;5183;51.190;6.820;2022-12-11T10:02:30;33.27;;;20.47;;
10275;SDS011;5183;51.190;6.820;2022-12-11T10:05:09;34.93;;;20.80;;
10275;SDS011;5183;51.190;6.820;2022-12-11T10:07:49;32.97;;;20.07;;
10275;SDS011;5183;51.190;6.820;2022-12-11T10:10:21;36.20;;;21.73;;
10275;SDS011;5183;51.190;6.820;2022-12-11T10:12:59;42.40;;;23.37;;
10275;SDS011;5183;51.190;6.820;2022-12-11T10:15:36;44.93;;;25.67;;
10275;SDS011;5183;51.190;6.820;2022-12-11T10:18:09;42.73;;;24.50;;
10275;SDS011;5183;51.190;6.820;2022-12-11T10:20:41;44.00;;;24.77;;
10275;SDS011;5183;51.190;6.820;2022-12-11T10:23:12;44.13;;;23.33;;
10275;SDS011;5183;51.190;6.820;2022-12-11T10:25:44;44.30;;;24.43;;
10275;SDS011;5183;51.190;6.820;2022-12-11T10:28:17;44.00;;;24.17;;
10275;SDS011;5183;51.190;6.820;2022-12-11T10:30:46;41.83;;;24.30;;
10275;SDS011;5183;51.190;6.820;2022-12-11T10:33:19;42.87;;;24.63;;
10275;SDS011;5183;51.190;6.820;2022-12-11T10:35:48;40.33;;;22.40;;
10275;SDS011;5183;51.190;6.820;2022-12-11T10:38:19;40.03;;;23.20;;
10275;SDS011;5183;51.190;6.820;2022-12-11T10:40:49;36.73;;;22.27;;
10275;SDS011;5183;51.190;6.820;2022-12-11T10:43:21;37.87;;;22.80;;
10275;SDS011;5183;51.190;6.820;2022-12-11T10:45:57;35.43;;;21.57;;
10275;SDS011;5183;51.190;6.820;2022-12-11T10:48:24;37.37;;;21.20;;
10275;SDS011;5183;51.190;6.820;2022-12-11T10:50:55;39.93;;;22.10;;
10275;SDS011;5183;51.190;6.820;2022-12-11T10:53:25;36.47;;;21.37;;
10275;SDS011;5183;51.190;6.820;2022-12-11T10:55:53;40.80;;;22.73;;
10275;SDS011;5183;51.190;6.820;2022-12-11T10:58:24;39.00;;;23.03;;
10275;SDS011;5183;51.190;6.820;2022-12-11T11:03:42;39.13;;;22.93;;
10275;SDS011;5183;51.190;6.820;2022-12-11T11:06:19;37.67;;;22.80;;
10275;SDS011;5183;51.190;6.820;2022-12-11T11:08:48;35.70;;;22.07;;
10275;SDS011;5183;51.190;6.820;2022-12-11T11:11:21;33.60;;;20.97;;
10275;SDS011;5183;51.190;6.820;2022-12-11T11:14:03;37.47;;;21.07;;
10275;SDS011;5183;51.190;6.820;2022-12-11T11:16:31;46.40;;;26.93;;
10275;SDS011;5183;51.190;6.820;2022-12-11T11:19:02;41.77;;;25.47;;
10275;SDS011;5183;51.190;6.820;2022-12-11T11:21:29;37.33;;;22.73;;
10275;SDS011;5183;51.190;6.820;2022-12-11T11:23:59;39.50;;;22.43;;
10275;SDS011;5183;51.190;6.820;2022-12-11T11:26:26;42.70;;;23.50;;
10275;SDS011;5183;51.190;6.820;2022-12-11T11:28:59;40.90;;;23.87;;
10275;SDS011;5183;51.190;6.820;2022-12-11T11:31:29;37.50;;;23.77;;
10275;SDS011;5183;51.190;6.820;2022-12-11T11:33:58;40.07;;;23.40;;
10275;SDS011;5183;51.190;6.820;2022-12-11T11:36:28;44.20;;;24.90;;
10275;SDS011;5183;51.190;6.820;2022-12-11T11:39:05;43.43;;;26.50;;
10275;SDS011;5183;51.190;6.820;2022-12-11T11:41:43;38.10;;;24.53;;
10275;SDS011;5183;51.190;6.820;2022-12-11T11:44:18;42.33;;;24.17;;
10275;SDS011;5183;51.190;6.820;2022-12-11T11:46:52;39.40;;;23.00;;
10275;SDS011;5183;51.190;6.820;2022-12-11T11:49:24;38.57;;;22.70;;
10275;SDS011;5183;51.190;6.820;2022-12-11T11:52:07;36.90;;;22.80;;
10275;SDS011;5183;51.190;6.820;2022-12-11T11:54:42;35.90;;;21.70;;
10275;SDS011;5183;51.190;6.820;2022-12-11T11:57:17;35.50;;;21.57;;
10275;SDS011;5183;51.190;6.820;2022-12-11T11:59:54;36.10;;;22.40;;
10275;SDS011;5183;51.190;6.820;2022-12-11T12:02:33;41.47;;;22.83;;
10275;SDS011;5183;51.190;6.820;2022-12-11T12:05:01;39.73;;;24.50;;
10275;SDS011;5183;51.190;6.820;2022-12-11T12:07:31;39.50;;;23.17;;
10275;SDS011;5183;51.190;6.820;2022-12-11T12:10:06;41.80;;;24.37;;
10275;SDS011;5183;51.190;6.820;2022-12-11T12:12:39;37.10;;;22.97;;
10275;SDS011;5183;51.190;6.820;2022-12-11T12:15:27;35.97;;;21.97;;
10275;SDS011;5183;51.190;6.820;2022-12-11T12:18:04;40.20;;;22.90;;
10275;SDS011;5183;51.190;6.820;2022-12-11T12:20:41;39.83;;;22.77;;
10275;SDS011;5183;51.190;6.820;2022-12-11T12:23:19;39.03;;;22.77;;
10275;SDS011;5183;51.190;6.820;2022-12-11T12:26:02;39.97;;;23.80;;
10275;SDS011;5183;51.190;6.820;2022-12-11T12:28:36;40.43;;;24.00;;
10275;SDS011;5183;51.190;6.820;2022-12-11T12:31:15;40.13;;;24.87;;
10275;SDS011;5183;51.190;6.820;2022-12-11T12:34:00;38.10;;;22.27;;
10275;SDS011;5183;51.190;6.820;2022-12-11T12:36:36;36.83;;;22.40;;
10275;SDS011;5183;51.190;6.820;2022-12-11T12:39:13;36.83;;;23.43;;
10275;SDS011;5183;51.190;6.820;2022-12-11T12:41:48;39.73;;;24.30;;
10275;SDS011;5183;51.190;6.820;2022-12-11T12:44:23;40.00;;;23.83;;
10275;SDS011;5183;51.190;6.820;2022-12-11T12:46:53;39.43;;;23.63;;
10275;SDS011;5183;51.190;6.820;2022-12-11T12:49:28;37.97;;;24.43;;
10275;SDS011;5183;51.190;6.820;2022-12-11T12:52:00;39.80;;;24.93;;
10275;SDS011;5183;51.190;6.820;2022-12-11T12:54:28;42.03;;;24.70;;
10275;SDS011;5183;51.190;6.820;2022-12-11T12:56:57;40.73;;;24.37;;
10275;SDS011;5183;51.190;6.820;2022-12-11T12:59:25;38.50;;;24.83;;
10275;SDS011;5183;51.190;6.820;2022-12-11T13:01:55;38.43;;;23.57;;
10275;SDS011;5183;51.190;6.820;2022-12-11T13:04:28;42.23;;;25.30;;
10275;SDS011;5183;51.190;6.820;2022-12-11T13:07:09;41.90;;;25.23;;
10275;SDS011;5183;51.190;6.820;2022-12-11T13:09:41;48.13;;;29.47;;
10275;SDS011;5183;51.190;6.820;2022-12-11T13:12:13;42.77;;;25.70;;
10275;SDS011;5183;51.190;6.820;2022-12-11T13:14:40;40.00;;;24.33;;
10275;SDS011;5183;51.190;6.820;2022-12-11T13:17:25;43.87;;;27.50;;
10275;SDS011;5183;51.190;6.820;2022-12-11T13:20:12;40.87;;;24.97;;
10275;SDS011;5183;51.190;6.820;2022-12-11T13:22:46;46.07;;;27.00;;
10275;SDS011;5183;51.190;6.820;2022-12-11T13:25:22;47.43;;;27.23;;
10275;SDS011;5183;51.190;6.820;2022-12-11T13:27:52;46.93;;;27.77;;
10275;SDS011;5183;51.190;6.820;2022-12-11T13:30:29;44.60;;;27.30;;
10275;SDS011;5183;51.190;6.820;2022-12-11T13:32:59;48.57;;;29.43;;
10275;SDS011;5183;51.190;6.820;2022-12-11T13:35:29;48.37;;;28.07;;
10275;SDS011;5183;51.190;6.820;2022-12-11T13:37:59;43.57;;;26.37;;
10275;SDS011;5183;51.190;6.820;2022-12-11T13:40:32;45.17;;;27.33;;
10275;SDS011;5183;51.190;6.820;2022-12-11T13:43:03;44.83;;;27.03;;
10275;SDS011;5183;51.190;6.820;2022-12-11T13:45:34;47.47;;;28.80;;
10275;SDS011;5183;51.190;6.820;2022-12-11T13:48:10;45.77;;;27.90;;
10275;SDS011;5183;51.190;6.820;2022-12-11T13:50:44;43.77;;;26.27;;
10275;SDS011;5183;51.190;6.820;2022-12-11T13:53:13;46.50;;;28.97;;
10275;SDS011;5183;51.190;6.820;2022-12-11T13:55:41;45.27;;;26.73;;
10275;SDS011;5183;51.190;6.820;2022-12-11T13:58:16;51.67;;;29.97;;
10275;SDS011;5183;51.190;6.820;2022-12-11T14:00:52;44.37;;;27.03;;
10275;SDS011;5183;51.190;6.820;2022-12-11T14:03:25;39.33;;;25.53;;
10275;SDS011;5183;51.190;6.820;2022-12-11T14:05:52;41.73;;;26.20;;
10275;SDS011;5183;51.190;6.820;2022-12-11T14:08:21;41.60;;;26.07;;
10275;SDS011;5183;51.190;6.820;2022-12-11T14:10:52;43.00;;;26.63;;
10275;SDS011;5183;51.190;6.820;2022-12-11T14:13:20;44.53;;;26.63;;
10275;SDS011;5183;51.190;6.820;2022-12-11T14:15:50;42.60;;;26.37;;
10275;SDS011;5183;51.190;6.820;2022-12-11T14:18:20;44.17;;;27.73;;
10275;SDS011;5183;51.190;6.820;2022-12-11T14:20:53;46.97;;;28.17;;
10275;SDS011;5183;51.190;6.820;2022-12-11T14:23:22;53.60;;;30.10;;
10275;SDS011;5183;51.190;6.820;2022-12-11T14:25:51;46.70;;;27.77;;
10275;SDS011;5183;51.190;6.820;2022-12-11T14:28:19;48.07;;;28.30;;
10275;SDS011;5183;51.190;6.820;2022-12-11T14:30:48;51.10;;;30.27;;
10275;SDS011;5183;51.190;6.820;2022-12-11T14:33:16;53.63;;;32.33;;
10275;SDS011;5183;51.190;6.820;2022-12-11T14:35:46;45.83;;;28.33;;
10275;SDS011;5183;51.190;6.820;2022-12-11T14:38:17;46.90;;;28.37;;
10275;SDS011;5183;51.190;6.820;2022-12-11T14:40:49;45.87;;;27.30;;
10275;SDS011;5183;51.190;6.820;2022-12-11T14:43:21;54.83;;;28.83;;
10275;SDS011;5183;51.190;6.820;2022-12-11T14:45:53;49.00;;;29.03;;
10275;SDS011;5183;51.190;6.820;2022-12-11T14:48:24;53.20;;;30.67;;
10275;SDS011;5183;51.190;6.820;2022-12-11T14:50:54;50.63;;;31.00;;
10275;SDS011;5183;51.190;6.820;2022-12-11T14:53:25;50.77;;;29.43;;
10275;SDS011;5183;51.190;6.820;2022-12-11T14:55:56;54.27;;;29.80;;
10275;SDS011;5183;51.190;6.820;2022-12-11T14:58:26;49.43;;;28.77;;
10275;SDS011;5183;51.190;6.820;2022-12-11T15:00:57;47.90;;;28.60;;
10275;SDS011;5183;51.190;6.820;2022-12-11T15:03:29;42.57;;;25.67;;
10275;SDS011;5183;51.190;6.820;2022-12-11T15:06:00;49.87;;;29.10;;
10275;SDS011;5183;51.190;6.820;2022-12-11T15:08:49;51.27;;;29.83;;
10275;SDS011;5183;51.190;6.820;2022-12-11T15:11:16;45.40;;;28.10;;
10275;SDS011;5183;51.190;6.820;2022-12-11T15:13:48;49.47;;;30.80;;
10275;SDS011;5183;51.190;6.820;2022-12-11T15:16:18;49.50;;;28.33;;
10275;SDS011;5183;51.190;6.820;2022-12-11T15:18:48;49.43;;;28.60;;
10275;SDS011;5183;51.190;6.820;2022-12-11T15:21:17;46.20;;;29.03;;
10275;SDS011;5183;51.190;6.820;2022-12-11T15:23:54;50.53;;;28.03;;
10275;SDS011;5183;51.190;6.820;2022-12-11T15:26:31;49.67;;;28.10;;
10275;SDS011;5183;51.190;6.820;2022-12-11T15:28:59;48.87;;;29.20;;
10275;SDS011;5183;51.190;6.820;2022-12-11T15:31:28;47.23;;;28.23;;
10275;SDS011;5183;51.190;6.820;2022-12-11T15:33:57;49.83;;;27.17;;
10275;SDS011;5183;51.190;6.820;2022-12-11T15:36:25;47.73;;;28.90;;
10275;SDS011;5183;51.190;6.820;2022-12-11T15:38:58;47.77;;;27.40;;
10275;SDS011;5183;51.190;6.820;2022-12-11T15:41:24;49.00;;;29.50;;
10275;SDS011;5183;51.190;6.820;2022-12-11T15:43:53;46.17;;;26.93;;
10275;SDS011;5183;51.190;6.820;2022-12-11T15:46:21;44.17;;;26.20;;
10275;SDS011;5183;51.190;6.820;2022-12-11T15:48:48;53.07;;;29.90;;
10275;SDS011;5183;51.190;6.820;2022-12-11T15:51:15;49.87;;;28.23;;
10275;SDS011;5183;51.190;6.820;2022-12-11T15:53:43;45.70;;;26.97;;
10275;SDS011;5183;51.190;6.820;2022-12-11T15:56:12;48.53;;;27.43;;
10275;SDS011;5183;51.190;6.820;2022-12-11T15:58:41;51.33;;;28.80;;
10275;SDS011;5183;51.190;6.820;2022-12-11T16:01:09;49.00;;;27.87;;
10275;SDS011;5183;51.190;6.820;2022-12-11T16:03:36;41.33;;;26.20;;
10275;SDS011;5183;51.190;6.820;2022-12-11T16:06:03;47.13;;;27.03;;
10275;SDS011;5183;51.190;6.820;2022-12-11T16:08:30;46.83;;;26.60;;
10275;SDS011;5183;51.190;6.820;2022-12-11T16:10:57;44.63;;;25.80;;
10275;SDS011;5183;51.190;6.820;2022-12-11T16:13:25;46.53;;;27.30;;
10275;SDS011;5183;51.190;6.820;2022-12-11T16:15:55;44.53;;;25.67;;
10275;SDS011;5183;51.190;6.820;2022-12-11T16:18:22;41.87;;;26.60;;
10275;SDS011;5183;51.190;6.820;2022-12-11T16:20:50;43.67;;;26.60;;
10275;SDS011;5183;51.190;6.820;2022-12-11T16:23:17;43.37;;;26.13;;
10275;SDS011;5183;51.190;6.820;2022-12-11T16:25:44;41.57;;;25.17;;
10275;SDS011;5183;51.190;6.820;2022-12-11T16:28:13;45.07;;;25.63;;
10275;SDS011;5183;51.190;6.820;2022-12-11T16:30:44;45.97;;;30.50;;
10275;SDS011;5183;51.190;6.820;2022-12-11T16:33:11;44.97;;;27.63;;
10275;SDS011;5183;51.190;6.820;2022-12-11T16:35:38;45.17;;;30.00;;
10275;SDS011;5183;51.190;6.820;2022-12-11T16:38:06;46.03;;;27.93;;
10275;SDS011;5183;51.190;6.820;2022-12-11T16:40:34;47.97;;;27.10;;
10275;SDS011;5183;51.190;6.820;2022-12-11T16:43:01;46.27;;;27.13;;
10275;SDS011;5183;51.190;6.820;2022-12-11T16:45:28;46.70;;;27.50;;
10275;SDS011;5183;51.190;6.820;2022-12-11T16:47:57;49.27;;;27.33;;
10275;SDS011;5183;51.190;6.820;2022-12-11T16:50:27;46.50;;;26.70;;
10275;SDS011;5183;51.190;6.820;2022-12-11T16:52:54;43.30;;;26.53;;
10275;SDS011;5183;51.190;6.820;2022-12-11T16:55:21;48.93;;;28.93;;
10275;SDS011;5183;51.190;6.820;2022-12-11T16:57:48;49.70;;;30.67;;
10275;SDS011;5183;51.190;6.820;2022-12-11T17:00:15;52.33;;;30.83;;
10275;SDS011;5183;51.190;6.820;2022-12-11T17:02:43;51.03;;;30.83;;
10275;SDS011;5183;51.190;6.820;2022-12-11T17:05:12;47.53;;;28.83;;
10275;SDS011;5183;51.190;6.820;2022-12-11T17:07:41;51.17;;;30.20;;
10275;SDS011;5183;51.190;6.820;2022-12-11T17:10:10;47.17;;;28.07;;
10275;SDS011;5183;51.190;6.820;2022-12-11T17:12:37;50.10;;;29.83;;
10275;SDS011;5183;51.190;6.820;2022-12-11T17:15:04;52.97;;;29.87;;
10275;SDS011;5183;51.190;6.820;2022-12-11T17:17:32;47.67;;;27.63;;
10275;SDS011;5183;51.190;6.820;2022-12-11T17:19:59;48.67;;;27.33;;
10275;SDS011;5183;51.190;6.820;2022-12-11T17:22:27;49.67;;;27.83;;
10275;SDS011;5183;51.190;6.820;2022-12-11T17:24:54;48.73;;;28.10;;
10275;SDS011;5183;51.190;6.820;2022-12-11T17:27:21;45.57;;;27.40;;
10275;SDS011;5183;51.190;6.820;2022-12-11T17:29:48;49.37;;;27.53;;
10275;SDS011;5183;51.190;6.820;2022-12-11T17:32:15;51.63;;;27.17;;
10275;SDS011;5183;51.190;6.820;2022-12-11T17:34:42;51.07;;;29.07;;
10275;SDS011;5183;51.190;6.820;2022-12-11T17:37:09;51.07;;;29.53;;
10275;SDS011;5183;51.190;6.820;2022-12-11T17:39:38;50.97;;;30.13;;
10275;SDS011;5183;51.190;6.820;2022-12-11T17:42:05;50.23;;;27.97;;
10275;SDS011;5183;51.190;6.820;2022-12-11T17:44:32;53.50;;;29.53;;
10275;SDS011;5183;51.190;6.820;2022-12-11T17:46:59;50.60;;;30.43;;
10275;SDS011;5183;51.190;6.820;2022-12-11T17:49:26;60.20;;;31.47;;
10275;SDS011;5183;51.190;6.820;2022-12-11T17:51:53;52.70;;;31.17;;
10275;SDS011;5183;51.190;6.820;2022-12-11T17:54:20;53.30;;;30.43;;
10275;SDS011;5183;51.190;6.820;2022-12-11T17:56:48;48.23;;;29.60;;
10275;SDS011;5183;51.190;6.820;2022-12-11T17:59:15;53.33;;;30.30;;
10275;SDS011;5183;51.190;6.820;2022-12-11T18:01:44;61.13;;;31.73;;
10275;SDS011;5183;51.190;6.820;2022-12-11T18:04:11;55.17;;;31.63;;
10275;SDS011;5183;51.190;6.820;2022-12-11T18:06:38;55.17;;;31.87;;
10275;SDS011;5183;51.190;6.820;2022-12-11T18:09:05;53.10;;;30.37;;
10275;SDS011;5183;51.190;6.820;2022-12-11T18:11:32;54.93;;;30.50;;
10275;SDS011;5183;51.190;6.820;2022-12-11T18:14:01;56.00;;;30.73;;
10275;SDS011;5183;51.190;6.820;2022-12-11T18:16:28;55.40;;;31.53;;
10275;SDS011;5183;51.190;6.820;2022-12-11T18:18:57;57.67;;;31.67;;
10275;SDS011;5183;51.190;6.820;2022-12-11T18:21:25;49.23;;;29.30;;
10275;SDS011;5183;51.190;6.820;2022-12-11T18:23:54;55.43;;;30.80;;
10275;SDS011;5183;51.190;6.820;2022-12-11T18:26:21;44.47;;;26.57;;
10275;SDS011;5183;51.190;6.820;2022-12-11T18:28:48;43.60;;;25.57;;
10275;SDS011;5183;51.190;6.820;2022-12-11T18:31:18;40.42;;;26.85;;
10275;SDS011;5183;51.190;6.820;2022-12-11T18:33:46;38.77;;;25.00;;
10275;SDS011;5183;51.190;6.820;2022-12-11T18:36:14;40.33;;;25.50;;
10275;SDS011;5183;51.190;6.820;2022-12-11T18:38:43;38.05;;;26.17;;
10275;SDS011;5183;51.190;6.820;2022-12-11T18:41:12;36.87;;;24.13;;
10275;SDS011;5183;51.190;6.820;2022-12-11T18:43:40;43.17;;;24.37;;
10275;SDS011;5183;51.190;6.820;2022-12-11T18:46:08;35.97;;;23.30;;
10275;SDS011;5183;51.190;6.820;2022-12-11T18:48:38;38.80;;;23.87;;
10275;SDS011;5183;51.190;6.820;2022-12-11T18:51:06;38.47;;;23.43;;
10275;SDS011;5183;51.190;6.820;2022-12-11T18:53:34;40.87;;;25.60;;
10275;SDS011;5183;51.190;6.820;2022-12-11T18:56:04;37.43;;;23.67;;
10275;SDS011;5183;51.190;6.820;2022-12-11T18:58:32;36.10;;;23.50;;
10275;SDS011;5183;51.190;6.820;2022-12-11T19:01:04;36.50;;;23.43;;
10275;SDS011;5183;51.190;6.820;2022-12-11T19:03:32;37.33;;;23.77;;
10275;SDS011;5183;51.190;6.820;2022-12-11T19:06:05;36.20;;;24.03;;
10275;SDS011;5183;51.190;6.820;2022-12-11T19:08:33;39.47;;;24.80;;
10275;SDS011;5183;51.190;6.820;2022-12-11T19:11:00;39.97;;;24.80;;
10275;SDS011;5183;51.190;6.820;2022-12-11T19:13:27;36.23;;;23.73;;
10275;SDS011;5183;51.190;6.820;2022-12-11T19:15:54;40.30;;;24.70;;
10275;SDS011;5183;51.190;6.820;2022-12-11T19:18:21;38.90;;;23.70;;
10275;SDS011;5183;51.190;6.820;2022-12-11T19:20:48;35.80;;;23.27;;
10275;SDS011;5183;51.190;6.820;2022-12-11T19:23:16;39.93;;;25.30;;
10275;SDS011;5183;51.190;6.820;2022-12-11T19:25:44;38.87;;;24.03;;
10275;SDS011;5183;51.190;6.820;2022-12-11T19:28:12;42.07;;;26.13;;
10275;SDS011;5183;51.190;6.820;2022-12-11T19:30:40;43.20;;;25.90;;
10275;SDS011;5183;51.190;6.820;2022-12-11T19:33:08;41.03;;;23.93;;
10275;SDS011;5183;51.190;6.820;2022-12-11T19:35:35;38.93;;;24.17;;
10275;SDS011;5183;51.190;6.820;2022-12-11T19:38:02;40.73;;;25.90;;
10275;SDS011;5183;51.190;6.820;2022-12-11T19:40:30;38.27;;;26.00;;
10275;SDS011;5183;51.190;6.820;2022-12-11T19:42:57;38.80;;;25.57;;
10275;SDS011;5183;51.190;6.820;2022-12-11T19:45:24;42.27;;;25.53;;
10275;SDS011;5183;51.190;6.820;2022-12-11T19:47:51;39.43;;;25.20;;
10275;SDS011;5183;51.190;6.820;2022-12-11T19:50:17;39.17;;;25.20;;
10275;SDS011;5183;51.190;6.820;2022-12-11T19:52:44;38.67;;;24.47;;
10275;SDS011;5183;51.190;6.820;2022-12-11T19:55:11;40.77;;;26.67;;
10275;SDS011;5183;51.190;6.820;2022-12-11T19:57:40;42.13;;;26.63;;
10275;SDS011;5183;51.190;6.820;2022-12-11T20:00:07;44.00;;;27.13;;
10275;SDS011;5183;51.190;6.820;2022-12-11T20:02:35;39.70;;;25.60;;
10275;SDS011;5183;51.190;6.820;2022-12-11T20:05:01;41.70;;;26.50;;
10275;SDS011;5183;51.190;6.820;2022-12-11T20:07:28;43.60;;;27.30;;
10275;SDS011;5183;51.190;6.820;2022-12-11T20:09:56;44.13;;;27.20;;
10275;SDS011;5183;51.190;6.820;2022-12-11T20:12:24;48.93;;;27.67;;
10275;SDS011;5183;51.190;6.820;2022-12-11T20:14:52;46.73;;;27.60;;
10275;SDS011;5183;51.190;6.820;2022-12-11T20:17:19;45.03;;;26.50;;
10275;SDS011;5183;51.190;6.820;2022-12-11T20:19:46;43.00;;;27.13;;
10275;SDS011;5183;51.190;6.820;2022-12-11T20:22:13;40.53;;;25.60;;
10275;SDS011;5183;51.190;6.820;2022-12-11T20:24:40;46.93;;;28.20;;
10275;SDS011;5183;51.190;6.820;2022-12-11T20:27:07;46.97;;;27.53;;
10275;SDS011;5183;51.190;6.820;2022-12-11T20:29:36;45.80;;;27.63;;
10275;SDS011;5183;51.190;6.820;2022-12-11T20:32:04;48.33;;;26.60;;
10275;SDS011;5183;51.190;6.820;2022-12-11T20:34:35;44.73;;;26.73;;
10275;SDS011;5183;51.190;6.820;2022-12-11T20:37:01;46.77;;;26.60;;
10275;SDS011;5183;51.190;6.820;2022-12-11T20:39:28;45.93;;;28.10;;
10275;SDS011;5183;51.190;6.820;2022-12-11T20:41:56;46.93;;;27.23;;
10275;SDS011;5183;51.190;6.820;2022-12-11T20:44:23;47.23;;;28.30;;
10275;SDS011;5183;51.190;6.820;2022-12-11T20:46:50;51.73;;;28.57;;
10275;SDS011;5183;51.190;6.820;2022-12-11T20:49:18;48.33;;;27.10;;
10275;SDS011;5183;51.190;6.820;2022-12-11T20:51:45;48.90;;;27.47;;
10275;SDS011;5183;51.190;6.820;2022-12-11T20:54:12;46.07;;;26.23;;
10275;SDS011;5183;51.190;6.820;2022-12-11T20:56:39;48.63;;;27.83;;
10275;SDS011;5183;51.190;6.820;2022-12-11T20:59:05;46.50;;;27.00;;
10275;SDS011;5183;51.190;6.820;2022-12-11T21:01:32;46.43;;;26.43;;
10275;SDS011;5183;51.190;6.820;2022-12-11T21:03:59;47.23;;;27.23;;
10275;SDS011;5183;51.190;6.820;2022-12-11T21:06:28;48.50;;;28.07;;
10275;SDS011;5183;51.190;6.820;2022-12-11T21:08:57;46.27;;;26.70;;
10275;SDS011;5183;51.190;6.820;2022-12-11T21:11:24;48.17;;;27.87;;
10275;SDS011;5183;51.190;6.820;2022-12-11T21:13:52;44.50;;;27.37;;
10275;SDS011;5183;51.190;6.820;2022-12-11T21:16:19;50.50;;;28.80;;
10275;SDS011;5183;51.190;6.820;2022-12-11T21:18:47;50.70;;;28.83;;
10275;SDS011;5183;51.190;6.820;2022-12-11T21:21:14;46.17;;;28.03;;